Time;durP1;ratioP1;P1;durP2;ratioP2;P2;SDS_P1;SDS_P2;PMS_P1;PMS_P2;Temp;Humidity;BMP_temperature;BMP_pressure;BME280_temperature;BME280_humidity;BME280_pressure;Samples;Min_cycle;Max_cycle;Signal;HPM_P1;HPM_P2
2023/02/09 00:00:55;;;;;;;;;104.00;92.00;;;;;1.23;89.10;102736.31;5100095;27;45184;-71
2023/02/09 00:03:20;;;;;;;;;103.67;90.33;;;;;1.21;88.91;102731.16;5095503;27;46391;-71
2023/02/09 00:05:45;;;;;;;;;107.00;99.33;;;;;1.17;89.38;102724.31;5100327;27;45607;-71
2023/02/09 00:08:11;;;;;;;;;104.33;94.33;;;;;1.13;89.01;102728.84;5106946;27;45282;-71
2023/02/09 00:10:38;;;;;;;;;104.67;92.33;;;;;1.09;89.74;102731.63;5099996;27;45273;-71
2023/02/09 00:13:21;;;;;;;;;106.67;93.67;;;;;1.03;90.39;102724.03;5100249;27;45390;-71
2023/02/09 00:15:56;;;;;;;;;108.33;102.00;;;;;0.99;90.88;102729.38;5095309;27;46442;-72
2023/02/09 00:18:22;;;;;;;;;106.33;95.33;;;;;0.96;90.84;102731.28;5095916;27;46361;-71
2023/02/09 00:20:59;;;;;;;;;100.67;81.67;;;;;0.99;90.81;102718.91;5100136;27;45347;-71
2023/02/09 00:23:25;;;;;;;;;102.67;88.33;;;;;1.00;90.95;102717.16;5099239;27;45482;-71
2023/02/09 00:25:51;;;;;;;;;106.33;93.00;;;;;1.00;90.61;102717.16;5099871;27;45347;-71
2023/02/09 00:28:17;;;;;;;;;104.33;92.33;;;;;0.97;91.16;102712.91;5098862;27;45399;-71
2023/02/09 00:30:42;;;;;;;;;100.67;88.33;;;;;0.92;91.18;102727.94;5098368;27;45417;-71
2023/02/09 00:33:08;;;;;;;;;103.33;86.67;;;;;0.90;91.66;102721.06;5099808;27;45968;-71
2023/02/09 00:35:33;;;;;;;;;99.33;84.00;;;;;0.93;91.26;102728.78;5099635;27;45356;-74
2023/02/09 00:37:58;;;;;;;;;98.33;83.00;;;;;0.89;90.84;102709.72;5104106;27;45286;-71
2023/02/09 00:40:24;;;;;;;;;104.00;90.67;;;;;0.88;91.36;102710.66;5106604;27;45223;-71
2023/02/09 00:42:49;;;;;;;;;104.00;91.33;;;;;0.90;91.77;102713.22;5106379;27;45220;-71
2023/02/09 00:45:14;;;;;;;;;99.33;86.67;;;;;0.85;91.70;102711.63;5106478;27;45450;-71
2023/02/09 00:47:40;;;;;;;;;105.33;95.00;;;;;0.85;92.17;102716.88;5091849;27;45678;-71
2023/02/09 00:50:07;;;;;;;;;101.33;83.67;;;;;0.87;91.80;102717.63;5106360;27;45145;-71
2023/02/09 00:52:33;;;;;;;;;105.67;90.00;;;;;0.83;91.74;102713.44;5104892;27;45274;-71
2023/02/09 00:54:58;;;;;;;;;111.33;100.67;;;;;0.84;92.16;102711.69;5106420;27;45338;-71
2023/02/09 00:57:23;;;;;;;;;112.00;104.33;;;;;0.85;92.13;102713.38;5101331;27;48578;-71
2023/02/09 00:59:49;;;;;;;;;101.67;90.33;;;;;0.84;91.80;102717.75;5096563;27;45386;-71
2023/02/09 01:02:14;;;;;;;;;118.33;101.33;;;;;0.85;91.97;102718.63;5104534;27;45378;-71
2023/02/09 01:04:39;;;;;;;;;106.33;93.00;;;;;0.80;91.53;102707.47;5106293;27;45371;-71
2023/02/09 01:07:05;;;;;;;;;109.00;91.00;;;;;0.73;91.30;102712.97;5112402;27;48180;-71
2023/02/09 01:09:30;;;;;;;;;108.00;94.67;;;;;0.68;91.15;102704.44;5105899;27;45422;-71
2023/02/09 01:11:56;;;;;;;;;114.00;99.33;;;;;0.67;92.27;102713.22;5105770;27;45428;-71
2023/02/09 01:14:21;;;;;;;;;106.00;92.33;;;;;0.66;91.84;102708.88;5105973;27;45376;-71
2023/02/09 01:16:46;;;;;;;;;97.67;81.67;;;;;0.62;91.89;102716.00;5105854;27;45415;-71
2023/02/09 01:19:13;;;;;;;;;101.00;87.00;;;;;0.63;91.99;102714.25;5104717;27;45422;-71
2023/02/09 01:21:38;;;;;;;;;102.67;84.33;;;;;0.62;92.90;102709.91;5104222;27;45315;-71
2023/02/09 01:24:04;;;;;;;;;97.25;81.00;;;;;0.61;92.82;102714.31;5105871;27;45374;-71
2023/02/09 01:26:29;;;;;;;;;97.25;75.75;;;;;0.58;92.85;102717.03;5104170;27;48161;-71
2023/02/09 01:28:55;;;;;;;;;99.00;80.00;;;;;0.56;93.16;102718.84;5104289;27;45412;-71
2023/02/09 01:31:26;;;;;;;;;97.33;78.67;;;;;0.56;92.82;102721.47;5105652;27;45223;-71
2023/02/09 01:33:53;;;;;;;;;93.33;73.67;;;;;0.53;92.71;102726.81;5105708;27;45463;-71
2023/02/09 01:36:19;;;;;;;;;99.00;85.00;;;;;0.52;92.63;102729.50;5100714;27;47733;-71
2023/02/09 01:38:45;;;;;;;;;91.25;72.50;;;;;0.49;92.55;102730.47;5095336;27;45435;-71
2023/02/09 01:41:10;;;;;;;;;93.00;70.00;;;;;0.46;92.45;102727.97;5105827;27;45284;-71
2023/02/09 01:44:04;;;;;;;;;92.50;75.00;;;;;0.44;92.73;102724.53;5105494;27;45281;-71
2023/02/09 01:46:34;;;;;;;;;93.00;73.25;;;;;0.39;93.09;102734.34;5092355;27;46140;-71
2023/02/09 01:49:05;;;;;;;;;87.75;68.75;;;;;0.34;92.97;102730.16;5102417;27;45477;-71
2023/02/09 01:51:36;;;;;;;;;75.00;57.25;;;;;0.32;93.37;102731.97;5102400;27;45378;-71
2023/02/09 01:54:10;;;;;;;;;94.75;74.75;;;;;0.30;93.72;102728.53;5101901;27;45573;-71
2023/02/09 01:56:39;;;;;;;;;93.50;75.00;;;;;0.29;94.02;102732.06;5102189;27;45364;-71
2023/02/09 01:59:06;;;;;;;;;92.25;72.50;;;;;0.32;93.68;102733.72;5100272;27;45288;-71
2023/02/09 02:01:32;;;;;;;;;85.00;69.25;;;;;0.34;93.68;102739.75;5102207;27;45411;-71
2023/02/09 02:03:57;;;;;;;;;93.25;71.75;;;;;0.33;93.74;102738.06;5087999;27;45221;-71
2023/02/09 02:06:23;;;;;;;;;85.00;68.50;;;;;0.33;92.91;102735.44;5106433;27;47342;-71
2023/02/09 02:08:58;;;;;;;;;87.50;69.50;;;;;0.30;93.20;102733.78;5101442;27;45242;-71
2023/02/09 02:11:27;;;;;;;;;80.00;64.75;;;;;0.29;93.44;102732.06;5100876;27;45285;-71
2023/02/09 02:13:52;;;;;;;;;82.25;66.50;;;;;0.24;93.72;102740.09;5096884;27;46299;-71
2023/02/09 02:16:45;;;;;;;;;87.75;67.50;;;;;0.27;93.41;102739.13;5094983;27;46186;-71
2023/02/09 02:19:54;;;;;;;;;80.75;67.50;;;;;0.23;93.23;102741.00;5091818;27;45411;-71
2023/02/09 02:22:55;;;;;;;;;86.00;66.75;;;;;0.20;93.24;102740.25;5090574;27;45472;-71
2023/02/09 02:25:32;;;;;;;;;84.75;68.00;;;;;0.15;93.57;102735.19;5100420;27;46165;-71
2023/02/09 02:28:16;;;;;;;;;94.25;73.50;;;;;0.11;94.24;102729.25;5099937;27;48765;-71
2023/02/09 02:30:48;;;;;;;;;84.25;68.75;;;;;0.04;94.45;102730.38;5100116;27;45387;-71
2023/02/09 02:33:55;;;;;;;;;91.25;70.50;;;;;0.08;94.16;102734.56;5101657;27;45559;-71
2023/02/09 02:36:29;;;;;;;;;87.50;70.25;;;;;0.07;95.02;102739.88;5101298;27;45716;-71
2023/02/09 02:39:10;;;;;;;;;85.50;64.75;;;;;0.05;94.91;102731.22;5101322;27;46378;-71
2023/02/09 02:44:42;;;;;;;;;97.75;76.25;;;;;0.01;95.44;102730.47;5100721;27;45343;-71
2023/02/09 02:47:14;;;;;;;;;86.25;69.25;;;;;-0.03;95.51;102732.34;5101328;27;45308;-71
2023/02/09 02:49:56;;;;;;;;;79.75;63.50;;;;;0.00;95.73;102731.41;5101274;27;45277;-71
2023/02/09 02:52:22;;;;;;;;;86.50;66.50;;;;;0.04;95.75;102737.34;5099694;27;45485;-71
2023/02/09 02:54:59;;;;;;;;;87.75;68.00;;;;;0.04;96.01;102738.22;5099914;27;45364;-71
2023/02/09 02:57:30;;;;;;;;;58.25;47.25;;;;;0.03;95.44;102727.81;5099506;27;46522;-71
2023/02/09 03:00:13;;;;;;;;;81.00;65.25;;;;;0.05;95.70;102739.06;5100669;27;45542;-71
2023/02/09 03:02:46;;;;;;;;;83.50;67.00;;;;;0.03;95.77;102741.72;5088304;27;45300;-71
2023/02/09 03:05:13;;;;;;;;;27.75;22.25;;;;;-0.03;95.74;102734.97;5099840;27;45393;-71
2023/02/09 03:07:38;;;;;;;;;83.50;66.25;;;;;0.02;95.85;102744.38;5108510;27;45509;-71
2023/02/09 03:10:22;;;;;;;;;88.25;70.25;;;;;-0.01;95.89;102734.91;5100659;27;45352;-71
2023/02/09 03:12:58;;;;;;;;;87.50;67.25;;;;;0.01;95.93;102740.94;5100822;27;45348;-71
2023/02/09 03:15:29;;;;;;;;;97.00;73.25;;;;;-0.02;95.97;102730.59;5096225;27;45327;-71
2023/02/09 03:18:07;;;;;;;;;87.00;68.00;;;;;-0.04;95.60;102733.25;5093788;27;45308;-71
2023/02/09 03:20:51;;;;;;;;;87.25;70.00;;;;;-0.05;95.45;102735.94;5099184;27;47428;-71
2023/02/09 03:23:46;;;;;;;;;86.75;69.50;;;;;-0.13;95.41;102734.44;5100143;27;45420;-71
2023/02/09 03:26:17;;;;;;;;;74.00;61.75;;;;;-0.14;96.28;102737.13;5100875;27;45317;-71
2023/02/09 03:28:47;;;;;;;;;80.75;66.75;;;;;-0.16;95.89;102726.72;5100527;27;45435;-71
2023/02/09 03:31:13;;;;;;;;;79.75;64.00;;;;;-0.15;96.17;102722.34;5099880;27;46784;-71
2023/02/09 03:33:39;;;;;;;;;79.00;63.00;;;;;-0.13;95.85;102717.91;5100443;27;45272;-71
2023/02/09 03:36:12;;;;;;;;;78.75;62.25;;;;;-0.09;96.78;102718.66;5100357;27;45456;-71
2023/02/09 03:38:38;;;;;;;;;73.50;59.00;;;;;-0.16;97.12;102705.81;5098949;27;46094;-71
2023/02/09 03:41:03;;;;;;;;;80.00;65.25;;;;;-0.11;96.49;102717.84;5100344;27;45486;-71
2023/02/09 03:46:12;;;;;;;;;77.50;63.00;;;;;-0.19;96.10;102715.50;5099192;27;45321;-71
2023/02/09 03:48:38;;;;;;;;;73.00;60.75;;;;;-0.20;96.59;102713.81;5095629;27;45986;-71
2023/02/09 03:51:05;;;;;;;;;74.75;62.25;;;;;-0.19;97.13;102712.88;5097630;27;48490;-71
2023/02/09 03:53:33;;;;;;;;;76.00;59.50;;;;;-0.17;95.76;102713.69;5100020;27;45263;-71
2023/02/09 03:55:58;;;;;;;;;72.75;61.00;;;;;-0.18;95.97;102720.66;5100186;27;45510;-72
2023/02/09 03:58:24;;;;;;;;;75.25;60.50;;;;;-0.20;96.19;102716.41;5098791;27;46189;-71
2023/02/09 04:00:49;;;;;;;;;72.50;59.00;;;;;-0.23;96.30;102711.28;5095217;27;47075;-71
2023/02/09 04:03:14;;;;;;;;;76.75;59.00;;;;;-0.29;95.71;102700.16;5079805;27;45490;-71
2023/02/09 04:05:40;;;;;;;;;75.25;61.50;;;;;-0.25;96.01;102695.66;5099276;27;45415;-71
2023/02/09 04:08:05;;;;;;;;;68.50;57.00;;;;;-0.30;95.79;102697.59;5107110;27;45578;-71
2023/02/09 04:10:30;;;;;;;;;75.25;61.25;;;;;-0.34;96.23;102693.38;5095000;27;46757;-71
2023/02/09 04:12:56;;;;;;;;;73.50;60.00;;;;;-0.34;96.27;102702.06;5091513;27;45141;-71
2023/02/09 04:15:21;;;;;;;;;74.50;62.00;;;;;-0.40;96.16;102700.53;5100048;27;45243;-71
2023/02/09 04:17:46;;;;;;;;;74.75;57.50;;;;;-0.36;96.66;102706.50;5095367;27;45869;-71
2023/02/09 04:20:11;;;;;;;;;78.25;62.50;;;;;-0.34;96.53;102722.13;5098261;27;46254;-71
2023/02/09 04:22:37;;;;;;;;;87.25;65.50;;;;;-0.35;96.87;102731.75;5094906;27;45431;-71
2023/02/09 04:25:02;;;;;;;;;77.75;62.50;;;;;-0.32;97.01;102728.16;5098446;27;45716;-72
2023/02/09 04:27:28;;;;;;;;;83.25;65.50;;;;;-0.32;97.06;102729.03;5094987;27;46993;-71
2023/02/09 04:29:53;;;;;;;;;75.50;61.50;;;;;-0.35;96.49;102733.47;5097547;27;45269;-71
2023/02/09 04:32:18;;;;;;;;;80.00;65.50;;;;;-0.35;96.50;102742.19;5099645;27;45372;-71
2023/02/09 04:34:44;;;;;;;;;79.00;62.25;;;;;-0.36;96.97;102744.84;5095028;27;45799;-71
2023/02/09 04:37:09;;;;;;;;;77.75;63.00;;;;;-0.39;96.75;102748.44;5089557;27;46040;-71
2023/02/09 04:39:34;;;;;;;;;79.25;63.25;;;;;-0.41;96.77;102745.88;5099272;27;45290;-71
2023/02/09 04:42:00;;;;;;;;;79.00;62.00;;;;;-0.46;96.12;102732.09;5099673;27;45309;-71
2023/02/09 04:44:25;;;;;;;;;79.25;61.75;;;;;-0.57;96.69;102727.22;5098347;27;45821;-71
2023/02/09 04:46:50;;;;;;;;;81.25;64.50;;;;;-0.48;96.66;102741.72;5099567;27;45488;-71
2023/02/09 04:49:16;;;;;;;;;75.75;62.75;;;;;-0.46;96.76;102739.94;5099362;27;45344;-71
2023/02/09 04:51:41;;;;;;;;;76.75;63.50;;;;;-0.52;97.54;102730.56;5099392;27;45357;-71
2023/02/09 04:54:06;;;;;;;;;82.00;65.50;;;;;-0.53;97.53;102733.22;5099277;27;45341;-71
2023/02/09 04:56:32;;;;;;;;;78.25;63.75;;;;;-0.51;97.66;102732.25;5099295;27;45434;-71
2023/02/09 05:01:41;;;;;;;;;77.50;62.75;;;;;-0.48;97.16;102736.50;5099270;27;45467;-71
2023/02/09 05:04:06;;;;;;;;;71.75;59.50;;;;;-0.52;96.99;102729.69;5094718;27;45313;-71
2023/02/09 05:06:31;;;;;;;;;75.25;60.25;;;;;-0.52;96.78;102727.06;5099349;27;45342;-71
2023/02/09 05:08:57;;;;;;;;;74.00;62.00;;;;;-0.57;96.88;102716.78;5094381;27;46993;-72
2023/02/09 05:11:22;;;;;;;;;76.00;59.75;;;;;-0.61;97.30;102706.47;5091187;27;45357;-71
2023/02/09 05:13:47;;;;;;;;;77.00;62.50;;;;;-0.62;97.76;102708.25;5085464;27;45436;-71
2023/02/09 05:16:16;;;;;;;;;71.50;60.25;;;;;-0.62;98.32;102710.00;5099232;27;45327;-72
2023/02/09 05:18:42;;;;;;;;;77.50;61.25;;;;;-0.64;98.69;102715.28;5099182;27;45543;-71
2023/02/09 05:21:07;;;;;;;;;67.75;56.00;;;;;-0.64;98.68;102712.66;5097613;27;45578;-71
2023/02/09 05:23:33;;;;;;;;;73.75;59.25;;;;;-0.61;98.03;102712.56;5099500;27;45311;-71
2023/02/09 05:25:58;;;;;;;;;65.25;54.00;;;;;-0.58;97.96;102722.06;5102588;27;45609;-71
2023/02/09 05:28:24;;;;;;;;;73.75;59.75;;;;;-0.59;98.12;102718.59;5100810;27;48435;-71
2023/02/09 05:30:53;;;;;;;;;75.75;63.25;;;;;-0.59;98.29;102725.59;5102451;27;45328;-71
2023/02/09 05:33:23;;;;;;;;;70.25;59.00;;;;;-0.69;98.10;102702.38;5102856;27;45291;-71
2023/02/09 05:35:50;;;;;;;;;78.00;60.25;;;;;-0.59;97.56;102716.00;5102330;27;45353;-71
2023/02/09 05:38:15;;;;;;;;;75.25;61.00;;;;;-0.62;98.15;102713.50;5100914;27;47388;-71
2023/02/09 05:40:40;;;;;;;;;70.75;56.75;;;;;-0.68;98.03;102704.09;5098717;27;45429;-71
2023/02/09 05:43:06;;;;;;;;;82.00;63.50;;;;;-0.73;98.00;102702.53;5102296;27;45490;-72
2023/02/09 05:45:31;;;;;;;;;80.75;63.00;;;;;-0.77;98.70;102712.25;5098375;27;45799;-72
2023/02/09 05:47:56;;;;;;;;;77.25;63.50;;;;;-0.77;98.32;102722.69;5102238;27;46141;-71
2023/02/09 05:50:22;;;;;;;;;78.00;63.50;;;;;-0.72;99.06;102738.22;5101995;27;45344;-71
2023/02/09 05:52:47;;;;;;;;;72.75;59.50;;;;;-0.71;98.75;102732.06;5094740;27;45401;-71
2023/02/09 05:55:12;;;;;;;;;72.50;58.75;;;;;-0.68;98.56;102731.97;5095785;27;45518;-72
2023/02/09 05:57:38;;;;;;;;;86.25;66.75;;;;;-0.68;98.23;102751.13;5101874;27;45291;-72
2023/02/09 06:00:04;;;;;;;;;79.75;63.25;;;;;-0.71;98.63;102794.75;5102150;27;45349;-72
2023/02/09 06:02:30;;;;;;;;;72.50;60.25;;;;;-0.79;98.73;102800.22;5087435;27;45324;-72
2023/02/09 06:04:55;;;;;;;;;74.75;62.00;;;;;-0.78;99.37;102812.38;5100340;27;45998;-72
2023/02/09 06:07:20;;;;;;;;;70.00;54.50;;;;;-0.79;99.01;102800.22;5108940;27;45286;-72
2023/02/09 06:09:46;;;;;;;;;74.75;60.75;;;;;-0.72;99.75;102814.78;5101644;27;45359;-71
2023/02/09 06:12:11;;;;;;;;;76.00;60.00;;;;;-0.75;99.59;102795.75;5102077;27;45268;-72
2023/02/09 06:14:36;;;;;;;;;77.75;62.75;;;;;-0.71;98.72;102794.75;5101111;27;45564;-75
2023/02/09 06:17:02;;;;;;;;;62.25;53.00;;;;;-0.78;99.15;102787.09;5101797;27;45639;-75
2023/02/09 06:19:27;;;;;;;;;74.00;60.00;;;;;-0.79;98.13;102787.16;5101871;27;45222;-75
2023/02/09 06:21:53;;;;;;;;;72.25;60.25;;;;;-0.79;99.04;102792.38;5101205;27;45710;-72
2023/02/09 06:24:19;;;;;;;;;69.50;56.50;;;;;-0.82;99.21;102780.28;5100871;27;45403;-72
2023/02/09 06:26:44;;;;;;;;;67.00;56.00;;;;;-0.79;99.67;102779.31;5097361;27;47290;-74
2023/02/09 06:29:10;;;;;;;;;70.50;56.25;;;;;-0.81;99.40;102786.38;5101395;27;46483;-72
2023/02/09 06:31:36;;;;;;;;;63.50;53.75;;;;;-0.81;99.42;102771.53;5101505;27;45376;-71
2023/02/09 06:34:03;;;;;;;;;64.00;51.75;;;;;-0.78;99.31;102797.56;5090162;27;45308;-72
2023/02/09 06:36:28;;;;;;;;;70.00;57.25;;;;;-0.81;100.00;102797.66;5098460;27;46574;-72
2023/02/09 06:38:53;;;;;;;;;66.25;54.75;;;;;-0.79;100.00;102781.94;5101214;27;45334;-73
2023/02/09 06:41:18;;;;;;;;;60.75;50.75;;;;;-0.68;100.00;102781.59;5095982;27;45374;-72
2023/02/09 06:43:44;;;;;;;;;65.00;53.00;;;;;-0.75;99.86;102765.25;5087438;27;46229;-71
2023/02/09 06:46:11;;;;;;;;;62.00;49.50;;;;;-0.76;99.72;102768.78;5099084;27;46033;-72
2023/02/09 06:48:38;;;;;;;;;59.75;48.75;;;;;-0.79;99.26;102779.31;5101396;27;45202;-72
2023/02/09 06:51:15;;;;;;;;;66.00;54.25;;;;;-0.83;99.41;102796.00;5101185;27;45254;-72
2023/02/09 06:53:41;;;;;;;;;73.00;57.75;;;;;-0.81;99.85;102796.81;5100676;27;45927;-72
2023/02/09 06:56:07;;;;;;;;;64.75;51.00;;;;;-0.75;99.23;102801.00;5100926;27;45412;-72
2023/02/09 06:58:33;;;;;;;;;70.75;56.50;;;;;-0.73;99.29;102793.94;5099205;27;45430;-72
2023/02/09 07:01:10;;;;;;;;;73.25;56.25;;;;;-0.71;99.62;102802.59;5101056;27;45499;-71
2023/02/09 07:03:36;;;;;;;;;56.00;49.50;;;;;-0.73;99.21;102805.25;5101046;27;45337;-72
2023/02/09 07:06:06;;;;;;;;;65.25;52.00;;;;;-0.73;99.64;102799.16;5103729;27;45359;-72
2023/02/09 07:08:32;;;;;;;;;70.00;58.75;;;;;-0.73;98.89;102791.31;5105064;27;45706;-71
2023/02/09 07:11:01;;;;;;;;;65.50;54.50;;;;;-0.75;99.14;102807.03;5101204;27;45459;-71
2023/02/09 07:13:26;;;;;;;;;59.00;49.50;;;;;-0.77;99.08;102812.31;5100542;27;45594;-71
2023/02/09 07:15:56;;;;;;;;;67.75;52.00;;;;;-0.70;99.79;102818.22;5100888;27;45263;-71
2023/02/09 07:18:21;;;;;;;;;70.50;57.25;;;;;-0.64;99.45;102818.03;5099060;27;45324;-71
2023/02/09 07:20:53;;;;;;;;;66.00;54.25;;;;;-0.65;98.39;102818.06;5101077;27;45321;-71
2023/02/09 07:23:18;;;;;;;;;55.00;46.50;;;;;-0.73;98.75;102810.47;5100300;27;45298;-71
2023/02/09 07:25:43;;;;;;;;;71.25;58.00;;;;;-0.71;98.62;102808.69;5100960;27;45401;-71
2023/02/09 07:28:09;;;;;;;;;69.00;57.75;;;;;-0.76;99.12;102810.56;5100237;27;45356;-71
2023/02/09 07:30:39;;;;;;;;;70.25;57.25;;;;;-0.80;98.89;102822.03;5100768;27;45458;-71
2023/02/09 07:33:05;;;;;;;;;67.75;54.25;;;;;-0.81;99.02;102820.31;5098052;27;45729;-72
2023/02/09 07:35:30;;;;;;;;;65.00;51.25;;;;;-0.77;99.25;102819.31;5099882;27;46093;-71
2023/02/09 07:37:55;;;;;;;;;71.00;58.25;;;;;-0.70;99.57;102828.66;5098657;27;45404;-71
2023/02/09 07:40:21;;;;;;;;;68.00;56.75;;;;;-0.66;98.94;102832.88;5100825;27;45497;-71
2023/02/09 07:42:46;;;;;;;;;75.00;60.75;;;;;-0.72;98.99;102820.00;5100063;27;45306;-71
2023/02/09 07:45:11;;;;;;;;;84.00;66.75;;;;;-0.64;98.50;102831.09;5095780;27;48355;-72
2023/02/09 07:47:37;;;;;;;;;88.50;66.75;;;;;-0.67;98.24;102819.88;5096263;27;45313;-71
2023/02/09 07:50:03;;;;;;;;;87.75;68.75;;;;;-0.64;98.58;102822.38;5100304;27;45348;-71
2023/02/09 07:52:28;;;;;;;;;84.25;68.00;;;;;-0.65;99.31;102837.19;5100132;27;45273;-71
2023/02/09 07:54:53;;;;;;;;;83.00;64.75;;;;;-0.64;99.44;102844.16;5100269;27;45356;-71
2023/02/09 07:57:19;;;;;;;;;79.50;62.75;;;;;-0.58;99.98;102868.34;5100093;27;45276;-71
2023/02/09 07:59:44;;;;;;;;;77.25;62.25;;;;;-0.58;100.00;102866.59;5100191;27;46307;-71
2023/02/09 08:02:24;;;;;;;;;86.75;67.75;;;;;-0.51;99.52;102877.69;5095511;27;46925;-71
2023/02/09 08:04:51;;;;;;;;;75.00;60.25;;;;;-0.49;100.00;102883.75;5083106;27;47391;-72
2023/02/09 08:07:16;;;;;;;;;86.75;68.75;;;;;-0.45;99.82;102885.34;5098334;27;45390;-72
2023/02/09 08:09:43;;;;;;;;;111.33;99.00;;;;;-0.42;99.98;102887.84;5100039;27;45356;-71
2023/02/09 08:12:09;;;;;;;;;97.00;77.33;;;;;-0.38;100.00;102891.25;5099909;27;45374;-71
2023/02/09 08:14:43;;;;;;;;;94.00;74.25;;;;;-0.38;100.00;102892.09;5099799;27;46582;-71
2023/02/09 08:17:18;;;;;;;;;89.25;67.75;;;;;-0.33;100.00;102899.78;5093537;27;45385;-70
2023/02/09 08:19:51;;;;;;;;;82.25;67.75;;;;;-0.21;100.00;102908.97;5095043;27;45392;-72
2023/02/09 08:22:17;;;;;;;;;88.75;70.00;;;;;-0.18;100.00;102903.66;5094155;27;45208;-72
2023/02/09 08:24:43;;;;;;;;;93.00;73.25;;;;;-0.15;100.00;102898.34;5085179;27;46126;-72
2023/02/09 08:27:09;;;;;;;;;90.25;70.00;;;;;-0.09;100.00;102906.88;5099790;27;45360;-72
2023/02/09 08:29:34;;;;;;;;;90.00;70.50;;;;;-0.06;100.00;102915.47;5099542;27;45402;-72
2023/02/09 08:31:59;;;;;;;;;89.50;73.00;;;;;-0.04;100.00;102913.66;5098423;27;45946;-71
2023/02/09 08:34:25;;;;;;;;;87.50;68.75;;;;;0.03;100.00;102926.53;5096780;27;46198;-75
2023/02/09 08:36:51;;;;;;;;;91.00;71.00;;;;;0.07;100.00;102936.84;5099585;27;45303;-75
2023/02/09 08:39:17;;;;;;;;;89.33;72.33;;;;;0.16;100.00;102937.44;5095954;27;45496;-71
2023/02/09 08:41:42;;;;;;;;;89.75;70.25;;;;;0.20;100.00;102933.81;5098054;27;45330;-71
2023/02/09 08:44:07;;;;;;;;;94.25;73.50;;;;;0.32;100.00;102943.00;5099140;27;45965;-71
2023/02/09 08:46:34;;;;;;;;;85.00;67.25;;;;;0.39;100.00;102954.13;5094521;27;45446;-71
2023/02/09 08:48:59;;;;;;;;;85.75;67.75;;;;;0.41;100.00;102950.53;5098844;27;45654;-71
2023/02/09 08:51:25;;;;;;;;;81.50;66.75;;;;;0.42;100.00;102947.00;5095326;27;47344;-71
2023/02/09 08:53:53;;;;;;;;;77.75;62.25;;;;;0.52;100.00;102951.94;5099142;27;45986;-72
2023/02/09 08:56:20;;;;;;;;;79.75;62.75;;;;;0.56;100.00;102948.28;5099638;27;45346;-72
2023/02/09 08:58:45;;;;;;;;;81.75;66.25;;;;;0.65;100.00;102952.38;5101555;27;45356;-72
2023/02/09 09:01:12;;;;;;;;;83.25;66.00;;;;;0.63;100.00;102944.59;5102991;27;45413;-72
2023/02/09 09:03:38;;;;;;;;;73.75;58.50;;;;;0.73;100.00;102953.81;5102799;27;46068;-71
2023/02/09 09:06:06;;;;;;;;;73.00;59.00;;;;;0.83;100.00;102943.00;5106198;27;45204;-71
2023/02/09 09:08:33;;;;;;;;;72.00;57.75;;;;;0.87;100.00;102952.47;5106716;27;45289;-72
2023/02/09 09:10:59;;;;;;;;;80.00;62.50;;;;;0.93;100.00;102954.84;5102941;27;45451;-71
2023/02/09 09:13:25;;;;;;;;;70.25;58.50;;;;;0.95;100.00;102966.13;5101042;27;47245;-72
2023/02/09 09:15:52;;;;;;;;;67.75;57.25;;;;;0.99;100.00;102941.53;5102965;27;45519;-71
2023/02/09 09:18:18;;;;;;;;;69.50;55.50;;;;;1.15;100.00;102961.91;5091379;27;45537;-71
2023/02/09 09:20:43;;;;;;;;;70.50;58.25;;;;;1.20;100.00;102959.13;5082197;27;45418;-71
2023/02/09 09:23:09;;;;;;;;;74.75;60.00;;;;;1.24;100.00;102966.81;5100228;27;46138;-72
2023/02/09 09:25:37;;;;;;;;;72.00;58.00;;;;;1.36;100.00;102962.00;5102881;27;45244;-72
2023/02/09 09:28:02;;;;;;;;;71.50;57.50;;;;;1.45;100.00;102956.44;5101014;27;45455;-72
2023/02/09 09:30:28;;;;;;;;;68.50;57.25;;;;;1.54;100.00;102959.59;5102532;27;45272;-72
2023/02/09 09:32:54;;;;;;;;;70.00;56.75;;;;;1.60;100.00;102972.47;5100872;27;45928;-72
2023/02/09 09:35:19;;;;;;;;;56.75;49.25;;;;;1.68;100.00;102970.41;5102524;27;45419;-72
2023/02/09 09:37:45;;;;;;;;;67.00;56.00;;;;;1.80;100.00;102969.06;5102295;27;45361;-71
2023/02/09 09:40:23;;;;;;;;;61.50;52.25;;;;;1.89;100.00;102978.34;5102242;27;45384;-72
2023/02/09 09:42:57;;;;;;;;;66.75;53.00;;;;;1.92;100.00;102978.22;5101866;27;46561;-72
2023/02/09 09:45:26;;;;;;;;;69.00;57.00;;;;;2.03;100.00;102983.00;5102238;27;45373;-72
2023/02/09 09:47:52;;;;;;;;;67.25;56.25;;;;;2.15;100.00;102976.41;5102653;27;45369;-72
2023/02/09 09:50:23;;;;;;;;;64.75;53.00;;;;;2.26;100.00;102983.84;5102267;27;45436;-72
2023/02/09 09:52:53;;;;;;;;;66.75;55.50;;;;;2.34;100.00;102986.97;5092111;27;48767;-72
2023/02/09 09:55:27;;;;;;;;;73.25;60.00;;;;;2.44;100.00;102979.59;5097690;27;45223;-72
2023/02/09 09:57:54;;;;;;;;;70.75;57.75;;;;;2.54;100.00;102980.03;5102271;27;45247;-71
2023/02/09 10:00:28;;;;;;;;;74.00;60.50;;;;;2.62;100.00;102972.69;5100574;27;47039;-72
2023/02/09 10:02:53;;;;;;;;;70.00;55.25;;;;;2.70;100.00;102953.97;5100505;27;48457;-72
2023/02/09 10:05:22;;;;;;;;;61.75;51.75;;;;;2.82;100.00;102965.72;5093533;27;46044;-72
2023/02/09 10:07:58;;;;;;;;;64.75;52.75;;;;;2.88;100.00;102959.34;5110224;27;45411;-71
2023/02/09 10:10:56;;;;;;;;;66.25;53.25;;;;;2.96;100.00;102964.25;5095040;27;47326;-72
2023/02/09 10:13:29;;;;;;;;;71.00;56.00;;;;;3.03;100.00;102965.69;5100183;27;46163;-72
2023/02/09 10:15:56;;;;;;;;;67.75;56.50;;;;;3.11;100.00;102960.91;5100234;27;45287;-72
2023/02/09 10:18:25;;;;;;;;;70.25;56.25;;;;;3.19;100.00;102959.69;5100727;27;45219;-72
2023/02/09 10:21:00;;;;;;;;;70.75;58.25;;;;;3.31;100.00;102967.03;5100728;27;45356;-73
2023/02/09 10:23:36;;;;;;;;;67.25;54.00;;;;;3.38;100.00;102955.31;5100149;27;45429;-72
2023/02/09 10:26:07;;;;;;;;;71.25;58.50;;;;;3.49;100.00;102965.31;5100771;27;45404;-72
2023/02/09 10:28:38;;;;;;;;;73.25;59.00;;;;;3.54;100.00;102962.47;5098792;27;45618;-71
2023/02/09 10:31:10;;;;;;;;;70.50;55.75;;;;;3.62;100.00;102957.69;5100298;27;45381;-71
2023/02/09 10:33:41;;;;;;;;;68.75;55.25;;;;;3.69;100.00;102953.00;5100633;27;46111;-72
2023/02/09 10:36:30;;;;;;;;;76.50;61.00;;;;;3.77;100.00;102945.56;5101232;27;45413;-72
2023/02/09 10:39:10;;;;;;;;;73.00;56.50;;;;;3.90;100.00;102958.97;5089475;27;45718;-71
2023/02/09 10:41:39;;;;;;;;;69.50;54.50;;;;;3.98;100.00;102955.13;5101001;27;45297;-71
2023/02/09 10:44:07;;;;;;;;;65.50;54.00;;;;;4.07;100.00;102965.19;5101466;27;45372;-71
2023/02/09 10:46:33;;;;;;;;;70.25;56.75;;;;;4.13;100.00;102957.00;5096286;27;45862;-72
2023/02/09 10:48:58;;;;;;;;;66.75;52.25;;;;;4.26;98.48;102966.91;5096609;27;45353;-74
2023/02/09 10:51:28;;;;;;;;;70.25;57.00;;;;;4.40;97.36;102974.94;5098724;27;46288;-72
2023/02/09 10:54:06;;;;;;;;;73.00;57.75;;;;;4.51;97.85;102955.97;5088698;27;46270;-72
2023/02/09 10:56:44;;;;;;;;;69.25;55.25;;;;;4.58;97.33;102931.94;5101077;27;45393;-72
2023/02/09 10:59:19;;;;;;;;;66.00;54.75;;;;;4.73;96.69;102944.31;5100653;27;45394;-71
2023/02/09 11:02:01;;;;;;;;;70.75;56.00;;;;;4.77;97.27;102937.97;5098791;27;46312;-72
2023/02/09 11:04:45;;;;;;;;;69.50;54.75;;;;;4.97;97.33;102948.34;5100377;27;45649;-73
2023/02/09 11:07:19;;;;;;;;;66.25;54.25;;;;;5.07;93.25;102956.59;5108392;27;45433;-73
2023/02/09 11:09:50;;;;;;;;;69.25;56.75;;;;;5.18;94.12;102938.44;5099572;27;45376;-73
2023/02/09 11:12:19;;;;;;;;;65.50;54.50;;;;;5.33;95.19;102946.44;5100739;27;45287;-73
2023/02/09 11:14:45;;;;;;;;;65.25;54.25;;;;;5.39;94.40;102957.47;5100550;27;46734;-73
2023/02/09 11:17:14;;;;;;;;;61.50;52.00;;;;;5.50;94.64;102948.09;5101123;27;45380;-74
2023/02/09 11:20:18;;;;;;;;;67.00;54.75;;;;;5.60;94.87;102949.28;5100536;27;45264;-73
2023/02/09 11:23:20;;;;;;;;;63.50;52.75;;;;;5.69;94.74;102947.94;5057357;28;45424;-73
2023/02/09 11:26:12;;;;;;;;;62.50;51.75;;;;;5.76;92.83;102928.19;5055751;28;45408;-73